Time;durP1;ratioP1;P1;durP2;ratioP2;P2;SDS_P1;SDS_P2;PMS_P1;PMS_P2;Temp;Humidity;BMP_temperature;BMP_pressure;BME280_temperature;BME280_humidity;BME280_pressure;Samples;Min_cycle;Max_cycle;Signal;HPM_P1;HPM_P2
2022/02/19 00:00:52;;;;;;;11.83;4.10;;;;;;;10.53;58.47;101193.19;5048664;28;20508;-79
2022/02/19 00:03:19;;;;;;;8.73;2.90;;;;;;;10.59;58.42;101224.78;5051044;28;20055;-77
2022/02/19 00:05:46;;;;;;;4.23;2.53;;;;;;;10.54;58.58;101222.78;5049288;28;20148;-79
2022/02/19 00:08:14;;;;;;;10.10;2.47;;;;;;;10.47;58.55;101216.56;5050701;28;20466;-74
2022/02/19 00:10:42;;;;;;;4.33;2.27;;;;;;;10.66;58.24;101234.63;5048818;28;20128;-74
2022/02/19 00:13:09;;;;;;;8.03;1.93;;;;;;;10.47;58.27;101198.97;5051390;28;20084;-75
2022/02/19 00:15:36;;;;;;;6.33;2.17;;;;;;;10.75;58.31;101223.81;5046407;28;20053;-78
2022/02/19 00:18:04;;;;;;;5.27;1.80;;;;;;;10.75;58.33;101228.56;5053273;28;20084;-75
2022/02/19 00:20:32;;;;;;;7.80;2.23;;;;;;;10.52;58.10;101194.28;5050383;28;20056;-82
2022/02/19 00:23:00;;;;;;;5.43;2.27;;;;;;;10.80;58.06;101229.47;5043459;28;20123;-84
2022/02/19 00:25:27;;;;;;;8.73;1.73;;;;;;;10.82;58.24;101230.03;5050415;28;20065;-83
2022/02/19 00:27:54;;;;;;;9.73;1.70;;;;;;;10.86;58.07;101233.13;5052954;28;20480;-83
2022/02/19 00:30:21;;;;;;;6.40;2.03;;;;;;;10.85;58.15;101237.03;5053330;28;20482;-79
2022/02/19 00:32:48;;;;;;;8.10;1.83;;;;;;;10.71;57.94;101217.09;5050505;28;20084;-73
2022/02/19 00:35:15;;;;;;;5.43;2.23;;;;;;;10.81;58.21;101222.78;5049709;28;20044;-74
2022/02/19 00:37:42;;;;;;;3.97;1.37;;;;;;;10.79;58.23;101227.75;5040357;28;20133;-74
2022/02/19 00:40:10;;;;;;;7.40;2.10;;;;;;;10.75;58.00;101218.22;5049116;28;20083;-76
2022/02/19 00:42:37;;;;;;;6.27;1.83;;;;;;;10.80;58.05;101226.69;5050020;28;20080;-78
2022/02/19 00:45:04;;;;;;;2.60;1.30;;;;;;;10.88;57.76;101244.91;5051363;28;20123;-77
2022/02/19 00:47:31;;;;;;;3.50;2.27;;;;;;;10.54;58.01;101191.22;5052894;28;20454;-79
2022/02/19 00:49:58;;;;;;;5.53;1.23;;;;;;;10.76;57.79;101219.06;5051852;28;20076;-80
2022/02/19 00:52:25;;;;;;;8.03;1.80;;;;;;;10.91;57.72;101250.78;5053665;28;20031;-78
2022/02/19 00:54:52;;;;;;;4.70;1.50;;;;;;;10.89;57.63;101252.16;5078305;28;20032;-78
2022/02/19 00:57:19;;;;;;;9.83;1.43;;;;;;;10.73;57.62;101230.78;5067076;28;20051;-78
2022/02/19 00:59:45;;;;;;;4.33;1.47;;;;;;;10.83;57.68;101242.03;5057536;28;20550;-75
2022/02/19 01:02:12;;;;;;;5.53;1.97;;;;;;;10.79;57.58;101236.16;5050511;28;20084;-75
2022/02/19 01:04:39;;;;;;;4.13;1.20;;;;;;;10.64;57.24;101216.47;5054467;28;20513;-81
2022/02/19 01:07:06;;;;;;;2.40;1.30;;;;;;;10.55;57.47;101190.94;5044646;28;20505;-77
2022/02/19 01:09:33;;;;;;;2.27;1.67;;;;;;;10.68;57.55;101210.06;5048828;28;20528;-78
2022/02/19 01:12:00;;;;;;;4.40;1.27;;;;;;;10.70;57.48;101214.53;5050256;28;20181;-77
2022/02/19 01:14:27;;;;;;;5.10;1.53;;;;;;;10.65;57.18;101204.19;5050871;28;20182;-78
2022/02/19 01:16:54;;;;;;;3.70;1.27;;;;;;;10.66;57.63;101198.31;5049952;28;20136;-79
2022/02/19 01:19:21;;;;;;;1.10;0.70;;;;;;;10.71;57.61;101197.53;5048387;28;20128;-81
2022/02/19 01:21:48;;;;;;;4.50;1.03;;;;;;;10.55;57.73;101185.38;5043053;28;20048;-85
2022/02/19 01:24:14;;;;;;;4.87;1.80;;;;;;;10.79;57.33;101213.78;5048252;28;20060;-82
2022/02/19 01:26:41;;;;;;;7.47;1.30;;;;;;;10.99;57.30;101255.06;5046791;28;20076;-76
2022/02/19 01:29:08;;;;;;;8.37;1.70;;;;;;;11.09;57.30;101249.53;5049266;28;20131;-78
2022/02/19 01:31:35;;;;;;;6.23;1.80;;;;;;;11.04;57.49;101220.69;5048509;28;20448;-78
2022/02/19 01:34:02;;;;;;;3.30;1.43;;;;;;;11.30;56.91;101250.53;5047386;28;20444;-82
2022/02/19 01:36:29;;;;;;;6.80;2.00;;;;;;;11.22;56.94;101234.28;5051963;28;20110;-82
2022/02/19 01:38:56;;;;;;;5.93;1.40;;;;;;;11.02;57.17;101226.56;5061196;28;20091;-81
2022/02/19 01:41:23;;;;;;;6.33;2.33;;;;;;;11.01;57.04;101221.22;5051598;28;20053;-80
2022/02/19 01:43:50;;;;;;;4.97;2.23;;;;;;;10.92;56.88;101218.09;5052539;28;20083;-81
2022/02/19 01:46:17;;;;;;;3.17;1.67;;;;;;;11.02;56.92;101234.13;5050001;28;20128;-78
2022/02/19 01:48:44;;;;;;;5.30;2.10;;;;;;;10.87;56.95;101223.63;5052272;28;20045;-77
2022/02/19 01:51:17;;;;;;;3.03;1.40;;;;;;;10.95;56.98;101233.50;5048797;28;20420;-77
2022/02/19 01:53:44;;;;;;;6.60;1.77;;;;;;;10.78;57.00;101214.06;5051719;28;20041;-78
2022/02/19 01:56:12;;;;;;;4.83;1.53;;;;;;;10.91;56.91;101238.78;5050144;28;20080;-76
2022/02/19 01:58:39;;;;;;;3.83;1.80;;;;;;;10.95;56.94;101233.50;5051619;28;20049;-88
2022/02/19 02:01:07;;;;;;;5.13;1.70;;;;;;;10.65;57.08;101199.44;5049339;28;20053;-86
2022/02/19 02:03:34;;;;;;;8.33;2.47;;;;;;;10.75;57.36;101218.22;5048992;28;20195;-86
2022/02/19 02:06:04;;;;;;;7.00;2.17;;;;;;;10.83;57.31;101231.72;5051069;28;20128;-85
2022/02/19 02:08:33;;;;;;;7.00;2.70;;;;;;;10.76;56.93;101224.66;5033576;28;20132;-85
2022/02/19 02:11:02;;;;;;;5.83;1.60;;;;;;;10.78;57.02;101234.47;5052041;28;20131;-82
2022/02/19 02:13:29;;;;;;;2.07;1.43;;;;;;;10.73;57.09;101233.56;5053025;28;20504;-77
2022/02/19 02:15:56;;;;;;;4.23;1.87;;;;;;;10.60;56.69;101232.91;5051611;28;20495;-77
2022/02/19 02:18:23;;;;;;;2.27;1.17;;;;;;;10.45;56.91;101221.56;5049647;28;20500;-78
2022/02/19 02:20:50;;;;;;;2.53;1.30;;;;;;;10.47;56.71;101222.16;5050223;28;20128;-81
2022/02/19 02:23:17;;;;;;;5.03;1.30;;;;;;;10.67;56.91;101266.22;5050164;28;20458;-80
2022/02/19 02:25:45;;;;;;;1.77;0.93;;;;;;;10.68;56.88;101251.97;5052645;28;20068;-82
2022/02/19 02:28:12;;;;;;;4.00;1.47;;;;;;;10.44;56.89;101222.69;5052029;28;20453;-81
2022/02/19 02:30:40;;;;;;;8.03;1.80;;;;;;;10.67;56.65;101250.28;5051489;28;20076;-82
2022/02/19 02:33:12;;;;;;;4.60;1.40;;;;;;;10.62;56.94;101241.00;5049929;28;20129;-77
2022/02/19 02:35:39;;;;;;;5.60;1.53;;;;;;;10.55;56.92;101241.22;5051659;28;20128;-77
2022/02/19 02:38:06;;;;;;;3.90;1.73;;;;;;;10.54;56.74;101247.09;5046952;28;20075;-77
2022/02/19 02:40:34;;;;;;;5.80;1.30;;;;;;;10.45;56.87;101257.88;5047006;28;20128;-76
2022/02/19 02:43:02;;;;;;;6.93;2.20;;;;;;;10.08;56.75;101191.53;5055782;28;20140;-77
2022/02/19 02:45:29;;;;;;;5.90;1.50;;;;;;;10.13;57.03;101213.09;5054752;28;20136;-76
2022/02/19 02:48:16;;;;;;;7.30;3.03;;;;;;;10.08;56.79;101202.72;5052888;28;20049;-79
2022/02/19 02:50:43;;;;;;;2.60;1.50;;;;;;;9.85;56.66;101164.78;5052439;28;20135;-76
2022/02/19 02:53:31;;;;;;;4.60;1.33;;;;;;;10.28;56.88;101235.63;5054034;28;20052;-77
2022/02/19 02:55:57;;;;;;;2.97;1.53;;;;;;;10.20;56.81;101231.31;5055749;28;20110;-78
2022/02/19 02:58:24;;;;;;;7.73;1.70;;;;;;;10.18;57.00;101230.72;5045246;28;20088;-75
2022/02/19 03:00:51;;;;;;;5.50;1.70;;;;;;;10.18;56.79;101230.72;5049027;28;20045;-74
2022/02/19 03:03:18;;;;;;;5.20;1.40;;;;;;;9.81;56.98;101179.50;5055538;28;20132;-75
2022/02/19 03:05:45;;;;;;;5.87;1.53;;;;;;;10.14;57.15;101235.16;5045911;28;20080;-73
2022/02/19 03:08:12;;;;;;;6.23;1.40;;;;;;;10.08;56.71;101224.19;5068817;28;20051;-76
2022/02/19 03:10:39;;;;;;;3.33;1.50;;;;;;;9.96;57.04;101215.97;5079699;28;20037;-81
2022/02/19 03:13:05;;;;;;;3.77;1.97;;;;;;;9.99;56.84;101225.78;5080853;28;20041;-77
2022/02/19 03:15:32;;;;;;;4.43;1.50;;;;;;;10.03;56.83;101235.31;5078979;28;20033;-79
2022/02/19 03:17:59;;;;;;;5.37;1.27;;;;;;;9.94;57.00;101229.31;5075904;28;20033;-80
2022/02/19 03:20:27;;;;;;;5.17;1.53;;;;;;;9.88;56.97;101222.00;5080303;28;20031;-81
2022/02/19 03:22:54;;;;;;;8.53;1.43;;;;;;;9.85;57.05;101230.91;5079410;28;20025;-81
2022/02/19 03:25:21;;;;;;;5.03;1.80;;;;;;;9.61;57.23;101200.47;5079494;28;20270;-83
2022/02/19 03:27:48;;;;;;;4.00;1.73;;;;;;;9.69;57.41;101218.69;5069608;28;20045;-80
2022/02/19 03:30:15;;;;;;;6.23;1.77;;;;;;;9.69;57.11;101227.91;5069914;28;20033;-79
2022/02/19 03:32:44;;;;;;;5.80;1.30;;;;;;;9.54;57.56;101199.81;5071696;28;20037;-82
2022/02/19 03:35:11;;;;;;;3.57;1.00;;;;;;;9.52;57.44;101188.06;5056141;28;20124;-76
2022/02/19 03:37:39;;;;;;;3.47;1.20;;;;;;;9.65;57.38;101201.63;5054266;28;20135;-75
2022/02/19 03:40:10;;;;;;;3.10;1.03;;;;;;;9.67;57.66;101195.78;5050168;28;20086;-81
2022/02/19 03:42:39;;;;;;;1.30;0.90;;;;;;;9.77;57.65;101207.06;5049982;28;20088;-80
2022/02/19 03:45:09;;;;;;;3.67;0.87;;;;;;;9.83;57.63;101216.38;5053930;28;20060;-77
2022/02/19 03:47:36;;;;;;;1.97;1.00;;;;;;;9.72;57.62;101207.03;5055356;28;20052;-81
2022/02/19 03:50:06;;;;;;;4.53;1.70;;;;;;;9.78;57.32;101230.22;5055206;28;20069;-88
2022/02/19 03:52:33;;;;;;;3.33;1.73;;;;;;;9.76;57.25;101226.88;5046173;28;20452;-84
2022/02/19 03:55:00;;;;;;;4.83;1.60;;;;;;;9.75;57.25;101236.34;5044262;28;20045;-85
2022/02/19 03:57:27;;;;;;;4.47;1.50;;;;;;;9.40;57.21;101179.84;5054534;28;20124;-83
2022/02/19 03:59:54;;;;;;;5.20;1.33;;;;;;;9.65;57.49;101229.53;5056530;28;20068;-82
2022/02/19 04:02:20;;;;;;;2.27;1.10;;;;;;;9.63;57.52;101217.78;5055130;28;20079;-86
2022/02/19 04:04:47;;;;;;;4.53;1.10;;;;;;;9.61;57.64;101220.00;5056133;28;20053;-80
2022/02/19 04:07:16;;;;;;;1.67;1.03;;;;;;;9.43;57.49;101186.81;5053095;28;20404;-87
2022/02/19 04:09:43;;;;;;;8.20;1.30;;;;;;;9.33;57.39;101172.75;5054967;28;20571;-86
2022/02/19 04:12:10;;;;;;;2.97;1.27;;;;;;;9.48;57.46;101204.47;5056121;28;20087;-87
2022/02/19 04:14:37;;;;;;;3.17;1.00;;;;;;;9.53;57.21;101214.00;5054014;28;20045;-84
2022/02/19 04:17:04;;;;;;;2.07;1.00;;;;;;;9.49;57.72;101214.50;5056043;28;20465;-83
2022/02/19 04:19:31;;;;;;;2.30;1.10;;;;;;;9.52;57.55;101221.53;5055353;28;20088;-84
2022/02/19 04:21:57;;;;;;;5.50;1.30;;;;;;;9.49;57.39;101216.47;5053891;28;20468;-86
2022/02/19 04:24:24;;;;;;;4.67;1.27;;;;;;;9.52;57.56;101220.69;5036068;28;20535;-75
2022/02/19 04:26:51;;;;;;;3.37;1.30;;;;;;;9.05;57.46;101137.50;5053627;28;20526;-72
2022/02/19 04:29:18;;;;;;;4.10;1.00;;;;;;;8.98;57.39;101124.59;5060765;28;20112;-72
2022/02/19 04:31:45;;;;;;;2.53;1.20;;;;;;;9.49;57.53;101213.69;5047535;28;20072;-73
2022/02/19 04:34:11;;;;;;;3.13;1.10;;;;;;;9.32;57.66;101199.78;5053164;28;20152;-73
2022/02/19 04:36:38;;;;;;;2.77;0.87;;;;;;;9.35;57.70;101206.78;5052717;28;20076;-73
2022/02/19 04:39:05;;;;;;;5.63;1.33;;;;;;;9.49;57.48;101227.63;5051907;28;20088;-74
2022/02/19 04:41:32;;;;;;;3.13;1.00;;;;;;;9.40;57.51;101223.56;5052006;28;20148;-72
2022/02/19 04:43:59;;;;;;;4.90;1.23;;;;;;;9.38;57.41;101225.78;5053554;28;20210;-72
2022/02/19 04:46:26;;;;;;;3.63;1.00;;;;;;;9.42;57.37;101232.53;5054199;28;20420;-72
2022/02/19 04:48:53;;;;;;;4.77;1.13;;;;;;;9.40;57.42;101240.28;5051484;28;20131;-71
2022/02/19 04:51:19;;;;;;;1.67;0.90;;;;;;;9.21;57.55;101209.09;5049495;28;20045;-75
2022/02/19 04:53:46;;;;;;;2.50;0.90;;;;;;;9.12;57.66;101200.31;5051288;28;20103;-74
2022/02/19 04:56:13;;;;;;;2.53;0.80;;;;;;;9.36;57.64;101241.91;5050765;28;20222;-74
2022/02/19 04:58:40;;;;;;;3.57;0.80;;;;;;;9.36;57.56;101234.38;5042012;28;20087;-72
2022/02/19 05:01:07;;;;;;;1.30;0.80;;;;;;;9.27;57.77;101219.22;5046576;28;20120;-73
2022/02/19 05:03:35;;;;;;;1.73;0.70;;;;;;;9.26;57.74;101211.94;5054199;28;20108;-77
2022/02/19 05:06:03;;;;;;;2.13;1.63;;;;;;;9.36;57.54;101239.97;5065102;28;20056;-78
2022/02/19 05:08:30;;;;;;;2.50;1.03;;;;;;;9.19;57.44;101217.69;5056053;28;20091;-78
2022/02/19 05:10:57;;;;;;;1.83;0.60;;;;;;;9.33;57.80;101240.47;5052976;28;20049;-75
2022/02/19 05:13:24;;;;;;;2.50;0.90;;;;;;;9.33;57.60;101231.28;5049366;28;20080;-75
2022/02/19 05:15:51;;;;;;;2.07;0.70;;;;;;;9.20;57.47;101215.78;5050725;28;20131;-75
2022/02/19 05:18:18;;;;;;;2.00;0.87;;;;;;;9.38;57.52;101239.72;5047686;28;20080;-76
2022/02/19 05:20:45;;;;;;;7.27;1.40;;;;;;;9.24;57.64;101236.44;5050371;28;20563;-76
2022/02/19 05:23:13;;;;;;;2.90;0.93;;;;;;;9.34;57.54;101244.13;5053616;28;20063;-76
2022/02/19 05:25:41;;;;;;;7.20;1.57;;;;;;;9.30;57.80;101252.16;5053150;28;20084;-78
2022/02/19 05:28:09;;;;;;;2.05;1.05;;;;;;;9.28;57.64;101245.16;5053218;28;20085;-78
2022/02/19 05:30:36;;;;;;;2.63;1.00;;;;;;;9.31;57.62;101253.00;5053284;28;20459;-78
2022/02/19 05:33:04;;;;;;;3.47;1.27;;;;;;;9.30;57.54;101248.50;5051990;28;20073;-80
2022/02/19 05:35:31;;;;;;;3.43;1.67;;;;;;;9.28;57.61;101254.34;5034210;28;20128;-76
2022/02/19 05:37:58;;;;;;;3.13;0.87;;;;;;;9.27;57.66;101265.75;5063195;28;20083;-75
2022/02/19 05:40:25;;;;;;;3.37;1.10;;;;;;;9.24;57.45;101259.59;5061100;28;20168;-73
2022/02/19 05:42:52;;;;;;;3.87;1.30;;;;;;;9.07;57.56;101247.59;5033407;28;20141;-73
2022/02/19 05:45:19;;;;;;;4.43;1.10;;;;;;;9.23;57.75;101266.28;5035460;28;20095;-76
2022/02/19 05:47:46;;;;;;;3.93;1.00;;;;;;;9.22;57.72;101272.91;5052422;28;20407;-77
2022/02/19 05:50:13;;;;;;;1.57;1.00;;;;;;;9.04;57.67;101248.13;5050659;28;20099;-84
2022/02/19 05:52:45;;;;;;;2.83;0.83;;;;;;;9.14;57.65;101266.94;5052210;28;20049;-81
2022/02/19 05:55:11;;;;;;;1.10;0.80;;;;;;;9.13;57.72;101274.47;5053614;28;20080;-84
2022/02/19 05:57:42;;;;;;;2.30;1.07;;;;;;;9.04;57.91;101262.03;5052672;28;20053;-79
2022/02/19 06:00:10;;;;;;;2.83;1.07;;;;;;;9.13;57.75;101268.88;5051554;28;20073;-79
2022/02/19 06:02:37;;;;;;;4.73;0.97;;;;;;;8.96;57.79;101256.91;5049388;28;20076;-75
2022/02/19 06:05:04;;;;;;;1.43;0.93;;;;;;;9.06;57.89;101275.72;5067549;28;20036;-75
2022/02/19 06:07:31;;;;;;;3.40;1.10;;;;;;;8.97;57.75;101270.56;5077283;28;20052;-83
2022/02/19 06:09:58;;;;;;;3.47;1.40;;;;;;;9.06;57.79;101295.22;5058870;28;20052;-88
2022/02/19 06:12:25;;;;;;;5.07;1.10;;;;;;;8.99;57.83;101284.22;5051682;28;20136;-76
2022/02/19 06:14:52;;;;;;;5.97;1.37;;;;;;;8.99;57.81;101296.25;5053140;28;20087;-85
2022/02/19 06:17:19;;;;;;;2.53;1.67;;;;;;;8.97;57.94;101297.59;5052115;28;20136;-87
2022/02/19 06:19:46;;;;;;;2.53;1.20;;;;;;;8.96;58.06;101290.34;5053626;28;20132;-77
2022/02/19 06:22:13;;;;;;;3.00;1.47;;;;;;;8.84;58.20;101279.25;5056146;28;20081;-76
2022/02/19 06:24:40;;;;;;;1.93;1.10;;;;;;;8.87;58.14;101286.25;5048237;28;20099;-74
2022/02/19 06:27:07;;;;;;;5.40;1.67;;;;;;;8.88;58.23;101287.94;5041635;28;20073;-75
2022/02/19 06:29:33;;;;;;;2.97;0.90;;;;;;;8.67;57.96;101270.03;5045563;28;20045;-75
2022/02/19 06:32:00;;;;;;;1.50;0.93;;;;;;;8.78;58.15;101286.66;5050898;28;20077;-75
2022/02/19 06:34:28;;;;;;;3.70;0.90;;;;;;;8.83;58.12;101296.22;5055118;28;20045;-74
2022/02/19 06:36:55;;;;;;;1.80;0.93;;;;;;;8.78;58.25;101292.22;5047514;28;20148;-73
2022/02/19 06:39:21;;;;;;;1.17;0.70;;;;;;;8.78;58.18;101302.53;5034910;28;20088;-75
2022/02/19 06:41:48;;;;;;;2.13;0.90;;;;;;;8.81;58.34;101303.97;5038638;28;20092;-73
2022/02/19 06:44:15;;;;;;;1.73;0.60;;;;;;;8.77;58.41;101298.91;5056369;28;20080;-75
2022/02/19 06:46:42;;;;;;;3.67;1.50;;;;;;;8.81;58.33;101309.53;5051889;28;20071;-71
2022/02/19 06:49:09;;;;;;;9.30;1.50;;;;;;;8.40;58.20;101241.97;5049092;28;20088;-78
2022/02/19 06:51:36;;;;;;;1.67;0.70;;;;;;;8.82;58.41;101302.88;5052597;28;20037;-77
2022/02/19 06:54:03;;;;;;;2.23;0.90;;;;;;;8.68;58.48;101272.56;5055599;28;20095;-71
2022/02/19 06:56:30;;;;;;;5.10;0.83;;;;;;;8.70;58.33;101273.16;5056099;28;20055;-72
2022/02/19 06:59:00;;;;;;;3.40;1.50;;;;;;;8.84;58.23;101309.88;5055575;28;20507;-74
2022/02/19 07:01:28;;;;;;;1.20;0.75;;;;;;;8.87;58.30;101297.41;5046949;28;20076;-80
2022/02/19 07:03:58;;;;;;;5.97;1.00;;;;;;;8.74;58.29;101277.13;5048943;28;20092;-78
2022/02/19 07:06:25;;;;;;;3.50;1.17;;;;;;;8.69;58.11;101277.03;5037438;28;20045;-74
2022/02/19 07:08:53;;;;;;;4.97;0.80;;;;;;;8.82;58.23;101308.44;5036354;28;20829;-75
2022/02/19 07:11:19;;;;;;;3.07;0.83;;;;;;;8.57;58.31;101275.41;5054599;28;20131;-80
2022/02/19 07:13:46;;;;;;;2.13;1.03;;;;;;;8.67;58.31;101309.00;5049899;28;20740;-80
2022/02/19 07:16:13;;;;;;;1.77;0.90;;;;;;;8.72;58.17;101331.41;5049573;28;20087;-78
2022/02/19 07:18:40;;;;;;;4.07;1.57;;;;;;;8.48;58.36;101306.44;5050646;28;20083;-85
2022/02/19 07:21:07;;;;;;;4.33;1.53;;;;;;;8.59;58.38;101332.53;5053031;28;20083;-79
2022/02/19 07:23:33;;;;;;;11.60;3.27;;;;;;;8.45;58.54;101322.78;5051624;28;20135;-82
2022/02/19 07:26:00;;;;;;;7.00;1.70;;;;;;;8.31;58.49;101317.47;5054310;28;20178;-81
2022/02/19 07:28:27;;;;;;;4.73;1.87;;;;;;;8.35;58.71;101322.56;5051785;28;20072;-78
2022/02/19 07:30:54;;;;;;;3.07;1.93;;;;;;;8.54;58.56;101365.81;5051503;28;20040;-80
2022/02/19 07:33:21;;;;;;;4.10;1.00;;;;;;;8.40;58.76;101339.38;5051846;28;20563;-73
2022/02/19 07:35:48;;;;;;;2.63;0.90;;;;;;;8.58;58.69;101367.03;5053664;28;20045;-76
2022/02/19 07:38:15;;;;;;;0.90;0.80;;;;;;;8.59;58.45;101371.50;5052250;28;20084;-72
2022/02/19 07:40:42;;;;;;;1.73;0.70;;;;;;;8.63;58.58;101381.06;5049106;28;20132;-76
2022/02/19 07:43:09;;;;;;;3.10;0.70;;;;;;;8.56;58.48;101366.44;5048240;28;20637;-69
2022/02/19 07:45:36;;;;;;;1.53;1.10;;;;;;;8.71;58.47;101383.44;5045131;28;20432;-71
2022/02/19 07:48:03;;;;;;;4.97;1.50;;;;;;;8.84;58.54;101392.59;5044690;28;20156;-70
2022/02/19 07:58:46;;;;;;;0.70;0.70;;;;;;;9.81;57.60;101405.44;5044462;28;20131;-75
2022/02/19 08:01:14;;;;;;;4.17;0.60;;;;;;;10.02;57.57;101410.28;5042939;28;20560;-76
2022/02/19 08:03:41;;;;;;;2.83;0.90;;;;;;;10.35;57.31;101430.84;5045990;28;20175;-74
2022/02/19 08:06:08;;;;;;;2.97;0.80;;;;;;;10.60;57.01;101420.03;5041278;28;20140;-75
2022/02/19 08:08:36;;;;;;;3.90;1.60;;;;;;;10.88;56.30;101423.75;5044410;28;20656;-73
2022/02/19 08:11:04;;;;;;;5.77;1.33;;;;;;;11.13;56.29;101435.19;5043892;28;20045;-72
2022/02/19 08:13:31;;;;;;;2.73;1.10;;;;;;;11.25;55.61;101406.25;5048078;28;20139;-72
2022/02/19 08:15:58;;;;;;;1.90;0.73;;;;;;;11.58;55.40;101417.16;5049013;28;20176;-72
2022/02/19 08:18:25;;;;;;;4.13;1.27;;;;;;;11.75;55.10;101396.59;5043809;28;20127;-73
2022/02/19 08:20:53;;;;;;;10.37;1.40;;;;;;;12.35;54.52;101447.75;5044398;28;20649;-73
2022/02/19 08:23:21;;;;;;;2.73;1.40;;;;;;;12.62;54.05;101454.06;5045876;28;20053;-72
2022/02/19 08:25:54;;;;;;;3.20;1.23;;;;;;;12.68;53.69;101426.88;5044035;28;20462;-71
2022/02/19 08:28:22;;;;;;;6.35;1.13;;;;;;;13.02;53.55;101450.59;5045975;28;20139;-71
2022/02/19 08:30:50;;;;;;;6.10;1.20;;;;;;;13.09;53.13;101452.28;5050418;28;20127;-71
2022/02/19 08:33:17;;;;;;;3.73;1.30;;;;;;;13.30;52.95;101465.28;5052335;28;20124;-71
2022/02/19 08:35:44;;;;;;;2.17;1.20;;;;;;;13.36;52.63;101447.31;5052119;28;20457;-72
2022/02/19 08:38:11;;;;;;;4.27;1.13;;;;;;;13.69;52.04;101476.00;5048979;28;20142;-72
2022/02/19 08:40:41;;;;;;;4.10;1.40;;;;;;;13.95;51.48;101483.34;5043838;28;20095;-73
2022/02/19 08:43:09;;;;;;;1.00;0.90;;;;;;;14.10;51.24;101462.81;5064084;28;20158;-70
2022/02/19 08:45:36;;;;;;;2.03;1.40;;;;;;;14.53;50.40;101484.97;5066383;28;20045;-72
2022/02/19 08:48:06;;;;;;;2.43;1.33;;;;;;;14.79;50.04;101482.94;5043320;28;20076;-71
2022/02/19 08:50:37;;;;;;;2.03;1.20;;;;;;;14.82;49.28;101462.69;5048896;28;20049;-73
2022/02/19 08:53:08;;;;;;;2.13;1.10;;;;;;;14.91;48.84;101459.00;5046723;28;20500;-73
2022/02/19 08:55:35;;;;;;;3.40;1.00;;;;;;;15.49;48.57;101497.81;5047663;28;20107;-73
2022/02/19 08:58:02;;;;;;;3.03;1.15;;;;;;;15.63;48.35;101478.31;5040984;28;20057;-71
2022/02/19 09:00:29;;;;;;;1.40;0.68;;;;;;;16.05;48.00;101508.72;5043293;28;20160;-70
2022/02/19 09:02:56;;;;;;;3.10;1.10;;;;;;;16.13;47.24;101495.94;5041094;28;20454;-72
2022/02/19 09:05:23;;;;;;;3.38;0.88;;;;;;;16.45;47.14;101512.31;5041006;28;20419;-71
2022/02/19 09:07:50;;;;;;;3.05;1.30;;;;;;;16.67;46.58;101517.44;5039638;28;20076;-72
2022/02/19 09:10:17;;;;;;;4.65;1.55;;;;;;;16.97;45.78;101506.97;5043733;28;20144;-72
2022/02/19 09:12:47;;;;;;;12.45;5.05;;;;;;;17.24;45.05;101517.66;5040298;28;20091;-75
2022/02/19 09:15:19;;;;;;;3.47;1.65;;;;;;;17.12;45.39;101481.38;5037203;28;20142;-72
2022/02/19 09:17:47;;;;;;;1.27;1.00;;;;;;;17.57;44.92;101521.41;5044322;28;20073;-71
2022/02/19 09:20:18;;;;;;;3.55;2.03;;;;;;;17.67;44.61;101526.91;5044708;28;21194;-71
2022/02/19 09:22:46;;;;;;;2.05;0.90;;;;;;;17.50;44.34;101489.88;5040847;28;20090;-73
2022/02/19 09:25:14;;;;;;;1.02;0.90;;;;;;;18.02;43.58;101526.72;5043759;28;20480;-72
2022/02/19 09:27:41;;;;;;;4.22;1.77;;;;;;;18.20;43.31;101542.81;5042967;28;20052;-75
2022/02/19 09:30:10;;;;;;;1.52;1.00;;;;;;;18.29;42.67;101534.47;5045970;28;20140;-72
2022/02/19 09:32:38;;;;;;;4.28;1.17;;;;;;;18.53;42.39;101538.00;5042606;28;20041;-71
2022/02/19 09:35:05;;;;;;;4.90;1.70;;;;;;;18.73;42.21;101547.28;5041783;28;20073;-71
2022/02/19 09:37:33;;;;;;;3.53;1.60;;;;;;;18.89;41.98;101551.50;5040470;28;20538;-71
2022/02/19 09:40:06;;;;;;;2.70;1.15;;;;;;;19.10;41.34;101544.28;5038062;28;20576;-71
2022/02/19 09:42:34;;;;;;;4.90;1.52;;;;;;;19.26;40.78;101556.16;5041692;28;20140;-70
2022/02/19 09:45:03;;;;;;;3.75;1.25;;;;;;;19.31;40.51;101539.03;5035830;28;20049;-71
2022/02/19 09:47:31;;;;;;;1.92;1.13;;;;;;;19.69;40.07;101521.78;5040928;28;20144;-72
2022/02/19 09:50:00;;;;;;;4.82;1.20;;;;;;;19.87;39.51;101568.16;5044899;28;20152;-72
2022/02/19 09:52:26;;;;;;;3.40;1.30;;;;;;;19.78;39.36;101538.91;5048063;28;20450;-72
2022/02/19 09:54:59;;;;;;;4.72;1.45;;;;;;;20.07;39.13;101561.19;5049894;28;20068;-72
2022/02/19 09:57:26;;;;;;;4.03;2.03;;;;;;;20.17;38.77;101560.06;5048023;28;20500;-72
2022/02/19 09:59:53;;;;;;;5.97;2.15;;;;;;;20.16;38.62;101566.91;5050547;28;20073;-72
2022/02/19 10:02:30;;;;;;;3.63;1.77;;;;;;;20.27;38.45;101571.16;5048121;28;20118;-71
2022/02/19 10:05:14;;;;;;;5.22;1.70;;;;;;;20.23;38.36;101559.63;5050789;28;20115;-71
2022/02/19 10:07:42;;;;;;;6.07;1.80;;;;;;;20.47;37.77;101579.16;5052320;28;20057;-72
2022/02/19 10:10:25;;;;;;;3.92;2.70;;;;;;;20.55;37.60;101575.59;5069016;28;20048;-72
2022/02/19 10:12:54;;;;;;;2.40;1.50;;;;;;;20.34;37.48;101529.88;5059065;28;20052;-72
2022/02/19 10:15:21;;;;;;;10.27;5.22;;;;;;;20.74;37.06;101578.22;5051981;28;20136;-72
2022/02/19 10:17:50;;;;;;;3.53;2.25;;;;;;;20.87;36.57;101567.94;5051206;28;20049;-72
2022/02/19 10:20:19;;;;;;;3.47;1.77;;;;;;;20.90;36.10;101557.94;5048789;28;20052;-73
2022/02/19 10:22:48;;;;;;;4.50;1.67;;;;;;;20.82;36.32;101557.56;5051635;28;20094;-74
2022/02/19 10:25:17;;;;;;;4.15;1.92;;;;;;;20.77;36.38;101543.50;5052609;28;20058;-72
2022/02/19 10:27:46;;;;;;;3.45;1.83;;;;;;;20.99;35.94;101562.50;5051098;28;20505;-72
2022/02/19 10:30:18;;;;;;;5.53;1.92;;;;;;;20.74;35.74;101497.91;5047097;28;20392;-72
2022/02/19 10:32:56;;;;;;;3.28;1.80;;;;;;;21.14;35.91;101551.88;5047828;28;20083;-72
2022/02/19 10:35:32;;;;;;;5.25;2.08;;;;;;;21.19;35.37;101543.19;5049632;28;20159;-71
2022/02/19 10:38:07;;;;;;;3.83;1.98;;;;;;;21.04;35.41;101548.16;5046673;28;20041;-74
2022/02/19 10:40:43;;;;;;;2.65;1.58;;;;;;;20.99;35.36;101539.78;5049297;28;20060;-72
2022/02/19 10:43:17;;;;;;;4.13;2.22;;;;;;;20.92;35.17;101528.06;5049275;28;20075;-71
2022/02/19 10:45:54;;;;;;;6.43;2.45;;;;;;;21.07;35.13;101552.34;5052668;28;20059;-72
2022/02/19 10:48:26;;;;;;;4.03;2.25;;;;;;;21.14;34.74;101534.81;5048042;28;20076;-73
2022/02/19 10:51:14;;;;;;;5.13;1.95;;;;;;;21.00;35.25;101523.56;5046993;28;20194;-72
2022/02/19 10:53:49;;;;;;;6.65;2.50;;;;;;;21.17;34.63;101528.50;5052606;28;20411;-71
2022/02/19 10:56:17;;;;;;;3.47;2.00;;;;;;;21.26;34.87;101529.34;5051492;28;20646;-72
2022/02/19 10:59:07;;;;;;;3.58;1.95;;;;;;;21.20;35.14;101534.34;5052139;28;20053;-72
2022/02/19 11:01:52;;;;;;;4.38;2.13;;;;;;;21.25;34.74;101530.50;5051600;28;20059;-72
2022/02/19 11:04:21;;;;;;;4.50;1.85;;;;;;;21.19;33.77;101532.66;5054272;28;20151;-72
2022/02/19 11:06:49;;;;;;;2.22;1.77;;;;;;;21.13;34.25;101527.44;5055868;28;20049;-73
2022/02/19 11:09:16;;;;;;;4.40;1.88;;;;;;;21.42;33.56;101533.44;5051588;28;20083;-73
2022/02/19 11:11:45;;;;;;;3.20;1.80;;;;;;;21.82;33.71;101523.97;5052041;28;20484;-73
2022/02/19 11:14:15;;;;;;;3.97;1.90;;;;;;;22.11;33.76;101489.16;5052602;28;20053;-72
2022/02/19 11:16:43;;;;;;;2.85;1.83;;;;;;;22.75;33.42;101519.69;5061843;28;20056;-73
2022/02/19 11:19:14;;;;;;;5.68;2.08;;;;;;;23.19;33.06;101526.94;5066739;28;20064;-70
2022/02/19 11:21:43;;;;;;;4.00;2.50;;;;;;;23.40;32.32;101532.69;5072947;28;20075;-72
2022/02/19 11:24:10;;;;;;;2.90;1.70;;;;;;;23.36;32.30;101509.72;5055714;28;20052;-72
2022/02/19 11:26:37;;;;;;;3.90;2.33;;;;;;;23.78;32.11;101531.78;5056468;28;20076;-73
2022/02/19 11:29:10;;;;;;;5.95;2.88;;;;;;;23.79;31.55;101491.50;5051863;28;20107;-71
2022/02/19 11:31:39;;;;;;;5.25;2.58;;;;;;;24.31;31.12;101530.19;5037367;28;20154;-71
2022/02/19 11:34:06;;;;;;;5.00;2.85;;;;;;;24.47;30.95;101536.09;5067759;28;20029;-72
2022/02/19 11:36:34;;;;;;;4.60;2.78;;;;;;;24.71;30.53;101527.59;5080976;28;20032;-71
2022/02/19 11:39:05;;;;;;;9.02;2.72;;;;;;;24.75;30.36;101528.56;5080021;28;20049;-71
2022/02/19 11:41:43;;;;;;;5.60;2.50;;;;;;;24.89;29.92;101527.38;5070948;28;20080;-72